Time;durP1;ratioP1;P1;durP2;ratioP2;P2;SDS_P1;SDS_P2;PMS_P1;PMS_P2;Temp;Humidity;BMP_temperature;BMP_pressure;BME280_temperature;BME280_humidity;BME280_pressure;Samples;Min_cycle;Max_cycle;Signal;HPM_P1;HPM_P2
2023/06/09 00:01:48;;;;;;;7.32;4.93;;;;;;;15.82;100.00;92333.91;4987356;28;20045;-78
2023/06/09 00:04:13;;;;;;;8.50;5.00;;;;;;;15.77;100.00;92340.16;4986594;28;20030;-77
2023/06/09 00:06:40;;;;;;;10.30;5.05;;;;;;;15.72;100.00;92336.94;4971093;28;20039;-78
2023/06/09 00:09:06;;;;;;;8.43;4.88;;;;;;;15.68;100.00;92336.75;4977468;28;20045;-78
2023/06/09 00:11:33;;;;;;;7.45;5.05;;;;;;;15.65;100.00;92339.25;4988585;28;20057;-77
2023/06/09 00:13:59;;;;;;;10.90;5.30;;;;;;;15.62;100.00;92333.53;4983428;28;20030;-77
2023/06/09 00:16:28;;;;;;;10.20;5.15;;;;;;;15.61;100.00;92331.22;4967118;28;20050;-78
2023/06/09 00:18:57;;;;;;;7.82;5.25;;;;;;;15.59;100.00;92321.00;4987286;28;20027;-77
2023/06/09 00:21:25;;;;;;;8.60;5.03;;;;;;;15.59;100.00;92323.63;4978563;28;20447;-77
2023/06/09 00:23:52;;;;;;;7.82;5.22;;;;;;;15.58;100.00;92316.81;4988559;28;20026;-77
2023/06/09 00:26:17;;;;;;;8.52;5.60;;;;;;;15.56;100.00;92319.00;4977421;28;20081;-77
2023/06/09 00:28:44;;;;;;;12.90;5.20;;;;;;;15.58;100.00;92334.50;4967132;28;20085;-77
2023/06/09 00:31:10;;;;;;;8.75;5.22;;;;;;;15.55;100.00;92324.59;4982341;28;20078;-77
2023/06/09 00:33:36;;;;;;;12.20;5.57;;;;;;;15.54;100.00;92326.47;4993969;28;20036;-77
2023/06/09 00:36:02;;;;;;;8.05;5.15;;;;;;;15.54;100.00;92329.09;4980888;28;20058;-77
2023/06/09 00:38:27;;;;;;;9.90;5.68;;;;;;;15.55;100.00;92330.63;4987278;28;20035;-78
2023/06/09 00:40:53;;;;;;;11.65;5.38;;;;;;;15.56;100.00;92328.78;4970281;28;20030;-77
2023/06/09 00:43:19;;;;;;;7.93;4.88;;;;;;;15.58;100.00;92332.66;4976482;28;20101;-76
2023/06/09 00:45:45;;;;;;;7.55;4.88;;;;;;;15.59;100.00;92328.13;4969668;28;20039;-77
2023/06/09 00:48:11;;;;;;;7.43;5.20;;;;;;;15.59;100.00;92331.53;4981088;28;20396;-77
2023/06/09 00:50:39;;;;;;;8.70;5.00;;;;;;;15.58;100.00;92337.91;4974502;28;20071;-78
2023/06/09 00:53:07;;;;;;;6.93;4.53;;;;;;;15.56;100.00;92323.50;4986779;28;20026;-78
2023/06/09 00:55:34;;;;;;;7.82;4.68;;;;;;;15.54;100.00;92329.09;4986828;28;20044;-78
2023/06/09 00:58:01;;;;;;;8.88;5.30;;;;;;;15.55;100.00;92333.28;4975798;28;20038;-78
2023/06/09 01:00:28;;;;;;;8.77;4.88;;;;;;;15.56;100.00;92328.78;4992941;28;20026;-78
2023/06/09 01:03:00;;;;;;;8.40;4.75;;;;;;;15.53;100.00;92324.13;4991075;28;20153;-78
2023/06/09 01:05:34;;;;;;;9.80;5.50;;;;;;;15.53;100.00;92327.53;4955565;28;20076;-78
2023/06/09 01:08:15;;;;;;;8.25;5.75;;;;;;;15.51;100.00;92323.69;4986401;28;20038;-78
2023/06/09 01:10:49;;;;;;;7.55;5.03;;;;;;;15.50;100.00;92330.81;4987236;28;20035;-78
2023/06/09 01:13:26;;;;;;;7.15;4.80;;;;;;;15.47;100.00;92326.19;4977991;28;20497;-79
2023/06/09 01:16:00;;;;;;;8.32;5.00;;;;;;;15.47;100.00;92322.75;4974297;28;20663;-78
2023/06/09 01:18:27;;;;;;;7.30;5.15;;;;;;;15.46;100.00;92315.97;4985040;28;20035;-78
2023/06/09 01:21:12;;;;;;;11.43;5.50;;;;;;;15.46;100.00;92321.22;4976362;28;20396;-78
2023/06/09 01:23:44;;;;;;;10.07;5.32;;;;;;;15.44;100.00;92320.78;4988839;28;20503;-78
2023/06/09 01:26:11;;;;;;;;;;;;;;;15.44;100.00;92315.50;4995109;28;20030;-78
2023/06/09 01:28:38;;;;;;;9.80;4.90;;;;;;;15.44;100.00;92318.13;4967747;28;20296;-78
2023/06/09 01:31:04;;;;;;;8.90;5.07;;;;;;;15.43;100.00;92312.09;4974810;28;20046;-78
2023/06/09 01:33:31;;;;;;;7.85;4.97;;;;;;;15.39;100.00;92308.56;4989052;28;20035;-78
2023/06/09 01:35:57;;;;;;;6.85;4.47;;;;;;;15.37;100.00;92310.72;4979768;28;20031;-78
2023/06/09 01:38:25;;;;;;;7.18;4.63;;;;;;;15.35;100.00;92315.53;4989466;28;20034;-78
2023/06/09 01:40:50;;;;;;;7.55;4.88;;;;;;;15.35;100.00;92312.91;4988591;28;20030;-78
2023/06/09 01:43:17;;;;;;;8.48;4.75;;;;;;;15.34;100.00;92314.00;4994313;28;20034;-77
2023/06/09 01:45:42;;;;;;;9.32;5.32;;;;;;;15.31;100.00;92312.00;4973053;28;20039;-77
2023/06/09 01:48:44;;;;;;;7.68;4.68;;;;;;;15.29;100.00;92312.34;4987471;28;20050;-78
2023/06/09 01:51:22;;;;;;;10.27;5.73;;;;;;;15.28;100.00;92307.38;4995146;28;20066;-78
2023/06/09 01:53:58;;;;;;;7.90;4.90;;;;;;;15.25;100.00;92305.38;4993108;28;20026;-78
2023/06/09 01:57:06;;;;;;;8.82;5.10;;;;;;;15.15;100.00;92307.28;4987958;28;20582;-77
2023/06/09 01:59:39;;;;;;;8.20;5.18;;;;;;;15.08;100.00;92304.34;4970307;28;20038;-78
2023/06/09 02:02:09;;;;;;;7.68;4.90;;;;;;;15.02;100.00;92305.66;4965754;28;20042;-78
2023/06/09 02:04:35;;;;;;;8.70;5.28;;;;;;;14.97;100.00;92309.25;4991784;28;20042;-78
2023/06/09 02:07:04;;;;;;;7.97;5.40;;;;;;;14.93;100.00;92310.19;4989326;28;20512;-78
2023/06/09 02:09:30;;;;;;;9.05;5.10;;;;;;;14.88;100.00;92299.81;4980020;28;20061;-78
2023/06/09 02:11:56;;;;;;;11.43;5.32;;;;;;;14.84;100.00;92304.16;4969545;28;20035;-78
2023/06/09 02:14:22;;;;;;;8.48;5.32;;;;;;;14.81;100.00;92300.28;4949354;28;20053;-77
2023/06/09 02:16:48;;;;;;;7.60;5.00;;;;;;;14.79;100.00;92305.09;4966784;28;20058;-78
2023/06/09 02:19:16;;;;;;;8.32;4.90;;;;;;;14.75;100.00;92307.63;4989133;28;20031;-78
2023/06/09 02:21:41;;;;;;;10.40;5.25;;;;;;;14.70;100.00;92299.91;4978529;28;20066;-78
2023/06/09 02:24:07;;;;;;;7.05;4.68;;;;;;;14.66;100.00;92298.19;4996991;28;20042;-77
2023/06/09 02:26:34;;;;;;;7.47;4.60;;;;;;;14.61;100.00;92296.50;4976988;28;20045;-77
2023/06/09 02:29:00;;;;;;;8.70;5.20;;;;;;;14.58;100.00;92291.88;4971561;28;20413;-78
2023/06/09 02:31:30;;;;;;;7.53;4.60;;;;;;;14.55;100.00;92288.00;4948084;28;20035;-78
2023/06/09 02:33:56;;;;;;;7.15;4.82;;;;;;;14.53;100.00;92289.38;4969604;28;20130;-77
2023/06/09 02:36:21;;;;;;;8.57;5.15;;;;;;;14.48;100.00;92281.66;4986656;28;20066;-78
2023/06/09 02:38:47;;;;;;;9.48;5.07;;;;;;;14.47;100.00;92283.50;4974867;28;20061;-77
2023/06/09 02:41:13;;;;;;;10.68;5.15;;;;;;;14.45;100.00;92282.25;4971907;28;20038;-77
2023/06/09 02:43:38;;;;;;;7.57;4.88;;;;;;;14.43;100.00;92279.94;4988545;28;20443;-78
2023/06/09 02:46:04;;;;;;;8.27;4.80;;;;;;;14.42;100.00;92282.91;4976393;28;20561;-78
2023/06/09 02:48:30;;;;;;;8.55;4.75;;;;;;;14.38;100.00;92277.47;4968228;28;20042;-78
2023/06/09 02:50:56;;;;;;;10.10;4.90;;;;;;;14.38;100.00;92282.75;4960138;28;20042;-78
2023/06/09 02:53:22;;;;;;;9.32;4.50;;;;;;;14.35;100.00;92278.88;4973695;28;20401;-77
2023/06/09 02:55:48;;;;;;;7.15;4.65;;;;;;;14.35;100.00;92278.13;4972627;28;20045;-78
2023/06/09 02:58:19;;;;;;;7.73;4.50;;;;;;;14.32;100.00;92274.25;4970535;28;20030;-78
2023/06/09 03:00:49;;;;;;;9.02;4.65;;;;;;;14.31;100.00;92274.56;4975283;28;20035;-77
2023/06/09 03:03:17;;;;;;;6.97;4.25;;;;;;;14.28;100.00;92273.34;4973924;28;20034;-77
2023/06/09 03:05:43;;;;;;;8.10;4.32;;;;;;;14.26;100.00;92264.97;4977996;28;20520;-78
2023/06/09 03:08:10;;;;;;;7.18;4.35;;;;;;;14.27;100.00;92265.72;4967802;28;20038;-78
2023/06/09 03:10:37;;;;;;;7.13;4.35;;;;;;;14.36;100.00;92267.28;4981880;28;20121;-78
2023/06/09 03:13:03;;;;;;;6.47;3.90;;;;;;;14.53;100.00;92266.44;4970042;28;20466;-77
2023/06/09 03:15:29;;;;;;;7.20;4.20;;;;;;;14.52;100.00;92264.09;4972014;28;20057;-77
2023/06/09 03:17:57;;;;;;;6.75;4.10;;;;;;;14.54;100.00;92259.31;4987654;28;20332;-78
2023/06/09 03:20:24;;;;;;;6.60;3.90;;;;;;;14.51;100.00;92265.22;4981782;28;20126;-77
2023/06/09 03:22:54;;;;;;;6.25;3.85;;;;;;;14.50;100.00;92268.91;4957866;28;20039;-78
2023/06/09 03:25:21;;;;;;;6.65;3.55;;;;;;;14.48;100.00;92271.13;4985296;28;20035;-78
2023/06/09 03:27:47;;;;;;;6.20;4.00;;;;;;;14.47;100.00;92277.47;4963305;28;20442;-77
2023/06/09 03:30:14;;;;;;;7.25;4.07;;;;;;;14.46;100.00;92271.44;4962781;28;20035;-78
2023/06/09 03:32:41;;;;;;;7.95;4.10;;;;;;;14.47;100.00;92270.31;4969854;28;20042;-78
2023/06/09 03:35:08;;;;;;;6.47;3.72;;;;;;;14.50;100.00;92268.91;4968140;28;20113;-78
2023/06/09 03:37:33;;;;;;;9.85;4.28;;;;;;;14.52;100.00;92266.75;4973478;28;20045;-79
2023/06/09 03:39:59;;;;;;;8.45;4.30;;;;;;;14.52;100.00;92272.81;4969531;28;20505;-78
2023/06/09 03:42:27;;;;;;;7.85;4.13;;;;;;;14.50;100.00;92274.19;4957262;28;20026;-78
2023/06/09 03:44:58;;;;;;;8.85;4.03;;;;;;;14.48;100.00;92265.84;4972390;28;20070;-78
2023/06/09 03:47:27;;;;;;;6.78;4.05;;;;;;;14.46;100.00;92270.66;4969388;28;20065;-78
2023/06/09 03:49:54;;;;;;;9.77;4.28;;;;;;;14.44;100.00;92270.97;4968026;28;20035;-78
2023/06/09 03:52:21;;;;;;;9.25;4.47;;;;;;;14.44;100.00;92270.97;4991711;28;20051;-78
2023/06/09 03:54:48;;;;;;;6.22;3.88;;;;;;;14.46;100.00;92278.56;4968359;28;20034;-78
2023/06/09 03:57:14;;;;;;;5.82;3.95;;;;;;;14.44;100.00;92276.22;4969428;28;20039;-78
2023/06/09 03:59:40;;;;;;;6.40;4.13;;;;;;;14.43;100.00;92273.91;4949682;28;20031;-78
2023/06/09 04:02:06;;;;;;;7.20;4.38;;;;;;;14.40;100.00;92270.03;4986972;28;20042;-77
2023/06/09 04:04:31;;;;;;;6.50;4.28;;;;;;;14.42;100.00;92275.00;4987733;28;20046;-78
2023/06/09 04:06:58;;;;;;;7.18;4.07;;;;;;;14.40;100.00;92277.19;4965673;28;20132;-78
2023/06/09 04:09:27;;;;;;;6.13;4.18;;;;;;;14.39;100.00;92281.66;4968162;28;20038;-78
2023/06/09 04:11:53;;;;;;;7.05;4.70;;;;;;;14.39;100.00;92279.03;4989923;28;20100;-77
2023/06/09 04:14:18;;;;;;;9.38;4.22;;;;;;;14.38;100.00;92280.88;4976302;28;20038;-77
2023/06/09 04:16:45;;;;;;;8.00;4.55;;;;;;;14.38;100.00;92280.88;4969385;28;20077;-77
2023/06/09 04:19:11;;;;;;;6.32;4.05;;;;;;;14.40;100.00;92279.81;4973921;28;20038;-78
2023/06/09 04:21:38;;;;;;;9.38;5.03;;;;;;;14.39;100.00;92279.03;4971686;28;20041;-78
2023/06/09 04:24:04;;;;;;;8.25;4.63;;;;;;;14.38;100.00;92280.88;4983523;28;20030;-78
2023/06/09 04:26:32;;;;;;;9.50;4.85;;;;;;;14.40;100.00;92283.22;4972996;28;20038;-77
2023/06/09 04:28:59;;;;;;;8.23;4.95;;;;;;;14.42;100.00;92290.81;4961633;28;20069;-78
2023/06/09 04:31:33;;;;;;;9.10;5.30;;;;;;;14.43;100.00;92285.19;4956417;28;20038;-78
2023/06/09 04:34:10;;;;;;;10.15;5.28;;;;;;;14.46;100.00;92283.81;4965170;28;20031;-78
2023/06/09 04:36:38;;;;;;;8.75;5.30;;;;;;;14.49;100.00;92285.81;4985102;28;20053;-77
2023/06/09 04:39:07;;;;;;;9.20;5.70;;;;;;;14.54;100.00;92286.44;4976905;28;20031;-77
2023/06/09 04:41:34;;;;;;;10.63;5.63;;;;;;;14.57;100.00;92282.44;4969743;28;20050;-78
2023/06/09 04:44:06;;;;;;;9.52;5.78;;;;;;;14.62;100.00;92278.84;4979091;28;20034;-78
2023/06/09 04:46:37;;;;;;;11.30;5.85;;;;;;;14.71;100.00;92280.34;4971187;28;20039;-81
2023/06/09 04:49:08;;;;;;;7.75;5.20;;;;;;;14.81;100.00;92283.72;4976960;28;20046;-78
2023/06/09 04:51:49;;;;;;;8.88;5.35;;;;;;;14.91;100.00;92276.25;4968332;28;20071;-79
2023/06/09 04:54:22;;;;;;;9.32;5.70;;;;;;;14.99;100.00;92283.34;4974806;28;20053;-80
2023/06/09 04:56:52;;;;;;;7.28;4.90;;;;;;;15.12;100.00;92291.31;4988028;28;20157;-79
2023/06/09 04:59:20;;;;;;;8.18;5.30;;;;;;;15.23;100.00;92289.09;4968152;28;20026;-77
2023/06/09 05:01:46;;;;;;;11.68;5.20;;;;;;;15.34;100.00;92290.28;4971035;28;20668;-78
2023/06/09 05:04:13;;;;;;;9.13;5.10;;;;;;;15.51;100.00;92292.03;4970168;28;20065;-79
2023/06/09 05:06:39;;;;;;;9.35;4.97;;;;;;;15.53;100.00;92287.97;4990054;28;20569;-78
2023/06/09 05:09:06;;;;;;;9.95;4.82;;;;;;;15.61;100.00;92296.94;4961686;28;20539;-78
2023/06/09 05:11:33;;;;;;;7.68;4.90;;;;;;;15.66;100.00;92296.72;4978416;28;20127;-78
2023/06/09 05:13:59;;;;;;;7.75;4.20;;;;;;;15.75;100.00;92294.06;4989436;28;20046;-78
2023/06/09 05:16:28;;;;;;;7.90;4.82;;;;;;;15.82;100.00;92292.44;4981990;28;20069;-79
2023/06/09 05:18:57;;;;;;;8.50;4.97;;;;;;;15.91;100.00;92294.25;4992304;28;20034;-79
2023/06/09 05:21:26;;;;;;;9.70;5.20;;;;;;;16.00;100.00;92290.44;4975762;28;20034;-80
2023/06/09 05:23:53;;;;;;;9.30;4.93;;;;;;;16.14;100.00;92294.66;4984423;28;20045;-79
2023/06/09 05:26:19;;;;;;;9.93;4.65;;;;;;;16.16;100.00;92295.88;4991615;28;20037;-78
2023/06/09 05:28:45;;;;;;;8.65;5.10;;;;;;;16.00;100.00;92298.34;4982178;28;20043;-80
2023/06/09 05:31:11;;;;;;;7.70;5.20;;;;;;;15.93;100.00;92298.09;4967213;28;20465;-80
2023/06/09 05:33:38;;;;;;;8.10;4.78;;;;;;;15.83;100.00;92295.88;4959589;28;20042;-80
2023/06/09 05:36:04;;;;;;;8.45;4.88;;;;;;;15.87;100.00;92301.25;4990124;28;20045;-79
2023/06/09 05:38:30;;;;;;;8.50;4.57;;;;;;;15.96;100.00;92300.13;4983601;28;20414;-80
2023/06/09 05:40:56;;;;;;;11.02;5.45;;;;;;;16.31;100.00;92307.72;4980928;28;20038;-79
2023/06/09 05:43:26;;;;;;;9.15;5.15;;;;;;;16.30;100.00;92308.81;4975684;28;20038;-79
2023/06/09 05:45:52;;;;;;;8.02;4.82;;;;;;;16.59;100.00;92305.25;5001633;28;20050;-80
2023/06/09 05:48:18;;;;;;;7.57;5.13;;;;;;;17.06;100.00;92317.34;5001018;28;20041;-80
2023/06/09 05:50:45;;;;;;;7.90;5.25;;;;;;;17.21;100.00;92316.69;4984757;28;20084;-80
2023/06/09 05:53:11;;;;;;;9.80;4.35;;;;;;;17.28;100.00;92311.63;5001410;28;20039;-80
2023/06/09 05:55:38;;;;;;;8.75;4.90;;;;;;;17.26;100.00;92316.47;4967151;28;20033;-80
2023/06/09 05:58:04;;;;;;;8.07;4.72;;;;;;;17.36;100.00;92315.28;5000704;28;20043;-80
2023/06/09 06:00:30;;;;;;;8.43;4.43;;;;;;;17.74;100.00;92314.09;5001713;28;20098;-80
2023/06/09 06:02:59;;;;;;;9.85;4.50;;;;;;;18.59;100.00;92324.78;4986608;28;20081;-78
2023/06/09 06:05:24;;;;;;;6.88;4.43;;;;;;;19.18;100.00;92323.97;5003696;28;20065;-79
2023/06/09 06:07:50;;;;;;;6.72;4.70;;;;;;;19.83;94.99;92325.47;5023429;28;20042;-79
2023/06/09 06:10:15;;;;;;;7.50;4.72;;;;;;;20.31;90.32;92324.19;5021501;28;20038;-80
2023/06/09 06:12:41;;;;;;;7.68;4.70;;;;;;;20.74;86.06;92329.56;5004313;28;20037;-79
2023/06/09 06:15:07;;;;;;;7.82;5.03;;;;;;;21.11;85.04;92324.47;4996979;28;20069;-79
2023/06/09 06:17:32;;;;;;;9.52;5.20;;;;;;;21.64;84.08;92331.81;5003049;28;20056;-80
2023/06/09 06:19:58;;;;;;;8.10;4.88;;;;;;;22.08;83.07;92327.81;5009564;28;20664;-79
2023/06/09 06:22:24;;;;;;;8.27;4.97;;;;;;;22.48;80.46;92340.53;5025013;28;20034;-80
2023/06/09 06:24:50;;;;;;;9.63;5.43;;;;;;;22.41;85.29;92335.09;5006261;28;20125;-79
2023/06/09 06:27:15;;;;;;;8.23;5.55;;;;;;;21.87;87.26;92339.72;5015313;28;20049;-79
2023/06/09 06:29:41;;;;;;;10.15;5.53;;;;;;;21.67;89.60;92331.06;4990731;28;20027;-79
2023/06/09 06:32:08;;;;;;;9.63;5.50;;;;;;;21.18;91.90;92331.81;4989111;28;20042;-79
2023/06/09 06:34:34;;;;;;;11.25;5.65;;;;;;;20.45;97.97;92334.31;5014588;28;20034;-79
2023/06/09 06:37:00;;;;;;;10.13;5.78;;;;;;;20.07;100.00;92335.84;5016687;28;20499;-79
2023/06/09 06:39:25;;;;;;;8.63;5.70;;;;;;;19.88;100.00;92336.59;4999195;28;20061;-79
2023/06/09 06:41:51;;;;;;;10.80;5.70;;;;;;;19.68;100.00;92335.75;5007216;28;20050;-78
2023/06/09 06:44:17;;;;;;;11.40;5.85;;;;;;;19.65;100.00;92335.66;4983308;28;20074;-78
2023/06/09 06:46:42;;;;;;;9.02;5.57;;;;;;;19.53;100.00;92339.97;4995273;28;20026;-78
2023/06/09 06:49:08;;;;;;;10.30;6.18;;;;;;;19.13;100.00;92337.50;4962670;28;20043;-78
2023/06/09 06:51:33;;;;;;;10.52;6.03;;;;;;;19.02;100.00;92347.09;5004708;28;20034;-78
2023/06/09 06:53:59;;;;;;;12.15;5.78;;;;;;;19.21;100.00;92336.56;4994163;28;20057;-79
2023/06/09 06:56:25;;;;;;;8.93;5.35;;;;;;;19.13;100.00;92342.81;5011915;28;20084;-79
2023/06/09 06:58:52;;;;;;;8.80;5.22;;;;;;;19.16;100.00;92339.47;5019485;28;20184;-78
2023/06/09 07:01:21;;;;;;;10.45;6.05;;;;;;;19.13;100.00;92342.81;4999463;28;20044;-78
2023/06/09 07:03:49;;;;;;;8.25;5.57;;;;;;;19.29;100.00;92342.81;4978759;28;20096;-77
2023/06/09 07:06:16;;;;;;;9.75;5.60;;;;;;;19.62;99.43;92339.03;4996874;28;20049;-78
2023/06/09 07:08:42;;;;;;;8.85;5.32;;;;;;;19.64;100.00;92344.75;4976132;28;20057;-78
2023/06/09 07:11:08;;;;;;;10.23;6.38;;;;;;;19.71;100.00;92335.09;5002556;28;20541;-78
2023/06/09 07:13:34;;;;;;;8.60;5.22;;;;;;;19.62;100.00;92337.13;4989720;28;20058;-78
2023/06/09 07:16:00;;;;;;;11.93;6.00;;;;;;;19.70;100.00;92332.75;4998949;28;20531;-78
2023/06/09 07:18:26;;;;;;;10.60;5.40;;;;;;;19.59;100.00;92337.03;4989772;28;20039;-78
2023/06/09 07:20:52;;;;;;;8.70;5.90;;;;;;;19.20;100.00;92344.88;4984461;28;20064;-81
2023/06/09 07:23:18;;;;;;;11.10;6.60;;;;;;;18.87;100.00;92341.44;4990081;28;20038;-79
2023/06/09 07:25:43;;;;;;;12.45;6.15;;;;;;;18.97;100.00;92342.03;4990738;28;20069;-79
2023/06/09 07:28:09;;;;;;;13.93;6.53;;;;;;;18.77;100.00;92343.78;4985739;28;20125;-79
2023/06/09 07:30:34;;;;;;;10.40;5.65;;;;;;;19.16;100.00;92351.97;4998470;28;20042;-79
2023/06/09 07:33:00;;;;;;;9.85;5.85;;;;;;;19.42;100.00;92359.41;4997195;28;20031;-79
2023/06/09 07:35:26;;;;;;;9.43;5.70;;;;;;;19.29;100.00;92354.19;4989339;28;20053;-79
2023/06/09 07:37:52;;;;;;;9.63;5.38;;;;;;;19.57;100.00;92363.94;4994935;28;20443;-78
2023/06/09 07:40:18;;;;;;;10.75;6.00;;;;;;;19.49;100.00;92362.25;4979803;28;20031;-79
2023/06/09 07:42:44;;;;;;;10.13;5.85;;;;;;;19.68;100.00;92356.19;4997299;28;20030;-78
2023/06/09 07:45:12;;;;;;;10.13;6.00;;;;;;;19.81;100.00;92359.56;4993436;28;20492;-78
2023/06/09 07:47:38;;;;;;;9.23;5.22;;;;;;;20.13;100.00;92357.59;5000614;28;20100;-78
2023/06/09 07:50:06;;;;;;;10.38;6.22;;;;;;;19.90;100.00;92368.09;4979042;28;20426;-77
2023/06/09 07:52:32;;;;;;;10.07;6.05;;;;;;;19.91;100.00;92362.44;4994891;28;20038;-78
2023/06/09 07:54:57;;;;;;;9.18;5.70;;;;;;;20.11;100.00;92363.25;5001015;28;20465;-78
2023/06/09 07:57:23;;;;;;;13.27;7.05;;;;;;;20.23;100.00;92367.66;4982991;28;20070;-78
2023/06/09 07:59:49;;;;;;;12.32;5.13;;;;;;;20.32;100.00;92364.81;5008022;28;20550;-77
2023/06/09 08:02:16;;;;;;;9.48;5.72;;;;;;;20.38;100.00;92360.75;4978898;28;20100;-77
2023/06/09 08:04:42;;;;;;;11.32;6.32;;;;;;;20.36;99.71;92368.31;5000021;28;20045;-77
2023/06/09 08:07:09;;;;;;;11.98;6.65;;;;;;;20.55;97.41;92364.88;4998678;28;20046;-77
2023/06/09 08:09:35;;;;;;;10.48;6.05;;;;;;;20.25;100.00;92367.31;4978159;28;20037;-78
2023/06/09 08:12:01;;;;;;;10.57;5.75;;;;;;;20.33;96.84;92359.16;4997486;28;20073;-78
2023/06/09 08:14:27;;;;;;;11.40;5.88;;;;;;;20.23;100.00;92364.25;4985245;28;20026;-78
2023/06/09 08:16:53;;;;;;;8.70;5.50;;;;;;;20.25;97.05;92362.00;4978590;28;20062;-78
2023/06/09 08:19:18;;;;;;;9.60;5.40;;;;;;;20.21;98.48;92359.28;4991906;28;20026;-78
2023/06/09 08:21:44;;;;;;;13.02;5.93;;;;;;;20.17;98.11;92364.53;5008948;28;20042;-78
2023/06/09 08:24:10;;;;;;;10.13;6.68;;;;;;;19.93;100.00;92364.78;4982420;28;20399;-78
2023/06/09 08:26:36;;;;;;;11.68;6.20;;;;;;;20.17;99.10;92361.06;4987662;28;20528;-78
2023/06/09 08:29:03;;;;;;;10.35;6.18;;;;;;;20.23;97.45;92358.94;5009359;28;20037;-78
2023/06/09 08:31:30;;;;;;;8.88;6.18;;;;;;;20.54;96.19;92356.13;5007717;28;20480;-78
2023/06/09 08:33:55;;;;;;;13.30;6.43;;;;;;;20.83;89.42;92353.25;4996710;28;20485;-78
2023/06/09 08:36:22;;;;;;;10.43;6.20;;;;;;;21.06;89.65;92351.38;4981664;28;20048;-78
2023/06/09 08:38:48;;;;;;;9.05;5.82;;;;;;;20.79;91.56;92347.88;4999375;28;20026;-78
2023/06/09 08:41:15;;;;;;;10.70;6.05;;;;;;;20.74;93.09;92358.81;5006550;28;20093;-78
2023/06/09 08:43:42;;;;;;;12.00;6.18;;;;;;;20.79;88.05;92356.63;5005225;28;20412;-77
2023/06/09 08:46:11;;;;;;;7.93;4.57;;;;;;;20.73;92.37;92355.38;5016724;28;20044;-77
2023/06/09 08:48:50;;;;;;;9.32;5.53;;;;;;;20.81;95.22;92361.59;4996267;28;20038;-77
2023/06/09 08:51:16;;;;;;;9.90;6.15;;;;;;;20.74;92.01;92361.47;4985001;28;20053;-78
2023/06/09 08:53:43;;;;;;;9.52;6.00;;;;;;;20.79;91.00;92355.84;4978297;28;20038;-77
2023/06/09 08:56:09;;;;;;;8.88;5.82;;;;;;;20.95;91.87;92361.84;4978663;28;20035;-77
2023/06/09 08:58:35;;;;;;;9.32;5.53;;;;;;;20.95;93.46;92358.41;4960957;28;20499;-78
2023/06/09 09:01:01;;;;;;;9.20;5.65;;;;;;;20.95;92.06;92367.16;4977779;28;20150;-77
2023/06/09 09:03:27;;;;;;;10.40;6.43;;;;;;;21.11;91.32;92360.97;4960945;28;20132;-79
2023/06/09 09:05:52;;;;;;;11.10;6.03;;;;;;;21.06;91.81;92355.94;4977704;28;20046;-79
2023/06/09 09:08:20;;;;;;;12.48;6.38;;;;;;;21.27;90.37;92356.28;4943648;28;20040;-77
2023/06/09 09:10:46;;;;;;;9.13;5.65;;;;;;;21.07;86.75;92354.81;4960641;28;20422;-78
2023/06/09 09:13:12;;;;;;;11.15;6.18;;;;;;;21.05;86.69;92349.06;4978129;28;20081;-78
2023/06/09 09:15:47;;;;;;;11.38;6.65;;;;;;;21.21;88.11;92355.84;4977732;28;20039;-77
2023/06/09 09:18:13;;;;;;;8.93;5.65;;;;;;;21.27;85.13;92350.97;4978039;28;20365;-78
2023/06/09 09:20:41;;;;;;;9.68;5.95;;;;;;;21.53;84.05;92352.19;4978002;28;20097;-78
2023/06/09 09:23:07;;;;;;;12.93;8.10;;;;;;;21.30;83.36;92355.59;4989108;28;20129;-77
2023/06/09 09:25:33;;;;;;;14.13;7.75;;;;;;;21.45;84.73;92351.28;4978931;28;20065;-78
2023/06/09 09:27:59;;;;;;;17.35;11.20;;;;;;;21.15;82.42;92351.16;4979900;28;20060;-78
2023/06/09 09:30:48;;;;;;;23.33;15.07;;;;;;;21.27;79.44;92348.31;4979968;28;20038;-77
2023/06/09 09:33:24;;;;;;;18.92;10.80;;;;;;;21.23;84.74;92342.16;4980164;28;20038;-77
2023/06/09 09:35:54;;;;;;;15.57;7.32;;;;;;;20.98;86.25;92339.06;4996531;28;20125;-77
2023/06/09 09:38:22;;;;;;;12.85;8.27;;;;;;;21.48;85.91;92337.28;4997997;28;20030;-78
2023/06/09 09:40:53;;;;;;;17.40;10.45;;;;;;;21.44;82.58;92338.34;4995754;28;20026;-77
2023/06/09 09:43:21;;;;;;;18.42;11.52;;;;;;;21.45;84.36;92343.28;4996846;28;20061;-78
2023/06/09 09:45:50;;;;;;;19.17;9.95;;;;;;;21.48;77.98;92339.94;4997544;28;20053;-78
2023/06/09 09:48:19;;;;;;;12.18;7.65;;;;;;;21.75;82.91;92335.38;4991506;28;20073;-78
2023/06/09 09:50:47;;;;;;;17.10;9.90;;;;;;;21.57;81.37;92329.00;4984561;28;20049;-78
2023/06/09 09:53:13;;;;;;;18.13;10.15;;;;;;;21.55;79.12;92340.03;4980892;28;20096;-77
2023/06/09 09:55:42;;;;;;;14.10;9.50;;;;;;;22.01;83.71;92328.50;4978819;28;20038;-78
2023/06/09 09:58:09;;;;;;;17.17;10.32;;;;;;;22.34;81.60;92325.13;4975621;28;20031;-77
2023/06/09 10:00:37;;;;;;;17.90;9.82;;;;;;;21.85;81.28;92325.22;4976453;28;20042;-77
2023/06/09 10:03:17;;;;;;;15.63;10.15;;;;;;;21.80;79.85;92321.75;4994947;28;20030;-77
2023/06/09 10:05:46;;;;;;;16.35;11.73;;;;;;;21.78;81.01;92316.00;4974636;28;20043;-76
2023/06/09 10:08:19;;;;;;;19.80;11.38;;;;;;;21.81;84.99;92320.59;4987813;28;20045;-76
2023/06/09 10:10:46;;;;;;;16.70;11.10;;;;;;;21.70;83.11;92319.69;4974950;28;20488;-78
2023/06/09 10:13:12;;;;;;;19.42;12.50;;;;;;;21.24;82.38;92325.06;4970542;28;20504;-78
2023/06/09 10:15:42;;;;;;;17.88;11.20;;;;;;;21.55;77.89;92323.28;4991663;28;20059;-77
2023/06/09 10:18:08;;;;;;;18.67;12.75;;;;;;;21.25;80.96;92326.59;4973834;28;20037;-78
2023/06/09 10:20:35;;;;;;;16.58;10.65;;;;;;;21.32;85.07;92321.41;4975128;28;20117;-77
2023/06/09 10:23:01;;;;;;;16.00;10.77;;;;;;;21.44;83.35;92322.38;4975170;28;20042;-77
2023/06/09 10:25:27;;;;;;;13.63;8.82;;;;;;;21.22;84.60;92329.97;4964973;28;20035;-78
2023/06/09 10:27:52;;;;;;;14.90;9.23;;;;;;;21.16;80.58;92334.81;4987619;28;20023;-79
2023/06/09 10:30:20;;;;;;;14.85;10.15;;;;;;;21.49;82.14;92330.03;4955942;28;20047;-79
2023/06/09 10:32:56;;;;;;;14.35;8.90;;;;;;;21.91;79.92;92326.44;4955834;28;20031;-78
2023/06/09 10:35:27;;;;;;;14.65;7.72;;;;;;;21.78;78.95;92332.00;4956895;28;20035;-79
2023/06/09 10:37:53;;;;;;;16.63;9.63;;;;;;;21.49;81.00;92327.38;4987923;28;20130;-79
2023/06/09 10:40:46;;;;;;;12.95;8.38;;;;;;;21.83;82.86;92338.91;4956850;28;20034;-79
2023/06/09 10:43:18;;;;;;;14.82;9.98;;;;;;;21.90;82.66;92330.25;4957623;28;20058;-79
2023/06/09 10:45:57;;;;;;;14.65;9.77;;;;;;;22.16;82.41;92334.78;4965003;28;20142;-79
2023/06/09 10:48:42;;;;;;;15.52;9.82;;;;;;;22.31;83.24;92325.06;4963315;28;20039;-78
2023/06/09 10:51:26;;;;;;;13.70;8.55;;;;;;;22.45;81.31;92314.59;4974059;28;20093;-78
2023/06/09 10:54:07;;;;;;;16.70;10.00;;;;;;;22.40;83.42;92321.00;4973493;28;20042;-78
2023/06/09 10:56:36;;;;;;;17.30;10.45;;;;;;;21.85;86.13;92319.91;4959018;28;20039;-79
2023/06/09 10:59:05;;;;;;;14.80;8.93;;;;;;;21.60;87.38;92320.31;4977482;28;20037;-79
2023/06/09 11:01:32;;;;;;;21.08;10.30;;;;;;;21.80;87.74;92316.41;4979106;28;20397;-79
2023/06/09 11:03:58;;;;;;;14.73;8.13;;;;;;;22.16;82.43;92327.53;4977772;28;20555;-79
2023/06/09 11:06:24;;;;;;;17.23;10.63;;;;;;;22.09;83.09;92324.78;4976626;28;20026;-79
2023/06/09 11:09:09;;;;;;;18.52;9.57;;;;;;;22.51;85.49;92321.13;4959932;28;20035;-78
2023/06/09 11:11:51;;;;;;;16.42;10.40;;;;;;;22.23;83.79;92314.31;4959691;28;20047;-79
2023/06/09 11:14:35;;;;;;;;;;;;;;;21.96;84.51;92320.81;4974307;28;20110;-78
2023/06/09 11:17:19;;;;;;;14.65;9.07;;;;;;;21.63;88.95;92330.25;4974519;28;20300;-79
2023/06/09 11:19:45;;;;;;;19.08;11.05;;;;;;;21.64;89.40;92321.16;4978211;28;20039;-79
2023/06/09 11:22:12;;;;;;;14.80;9.70;;;;;;;21.83;87.58;92317.59;4951363;28;20061;-78
2023/06/09 11:24:51;;;;;;;18.40;11.60;;;;;;;21.59;87.78;92318.75;4997154;28;20038;-78
2023/06/09 11:27:22;;;;;;;21.10;12.82;;;;;;;21.31;90.32;92322.50;4996683;28;20030;-79
2023/06/09 11:30:11;;;;;;;20.45;14.55;;;;;;;21.14;91.93;92323.00;4996994;28;20566;-78